createdAt,value
2018-01-25T00:00:05.810Z,975.25
2018-01-25T00:01:06.594Z,975.31
2018-01-25T00:02:06.412Z,975.28
2018-01-25T00:03:05.836Z,975.38
2018-01-25T00:04:06.059Z,975.19
2018-01-25T00:05:05.419Z,975.33
2018-01-25T00:06:06.115Z,975.28
2018-01-25T00:07:06.113Z,975.11
2018-01-25T00:08:05.695Z,975.22
2018-01-25T00:09:06.173Z,975.31
2018-01-25T00:10:05.897Z,975.33
2018-01-25T00:11:05.776Z,975.41
2018-01-25T00:12:06.333Z,975.39
2018-01-25T00:13:06.090Z,975.23
2018-01-25T00:14:05.561Z,975.31
2018-01-25T00:15:06.724Z,975.23
2018-01-25T00:16:06.182Z,975.23
2018-01-25T00:17:06.356Z,975.12
2018-01-25T00:18:05.468Z,975.23
2018-01-25T00:19:06.142Z,975.17
2018-01-25T00:20:06.380Z,975.09
2018-01-25T00:21:05.433Z,975.09
2018-01-25T00:22:06.138Z,975.17
2018-01-25T00:23:05.879Z,975.09
2018-01-25T00:24:06.216Z,975.09
2018-01-25T00:25:06.284Z,975.23
2018-01-25T00:26:05.884Z,974.95
2018-01-25T00:27:05.517Z,975.17
2018-01-25T00:28:06.328Z,975.03
2018-01-25T00:29:05.796Z,974.95
2018-01-25T00:30:06.435Z,975.09
2018-01-25T00:31:06.200Z,974.98
2018-01-25T00:32:05.804Z,975.03
2018-01-25T00:33:06.233Z,975.03
2018-01-25T00:34:05.575Z,974.93
2018-01-25T00:35:06.389Z,975.03
2018-01-25T00:36:05.465Z,975.23
2018-01-25T00:37:06.207Z,975.21
2018-01-25T00:38:05.813Z,975.21
2018-01-25T00:39:05.395Z,975.29
2018-01-25T00:40:05.561Z,975.21
2018-01-25T00:41:05.843Z,975.15
2018-01-25T00:42:06.172Z,975.15
2018-01-25T00:43:05.808Z,975.01
2018-01-25T00:44:06.239Z,975.09
2018-01-25T00:45:06.404Z,975.04
2018-01-25T00:46:06.305Z,974.98
2018-01-25T00:47:05.801Z,975.26
2018-01-25T00:48:06.380Z,975.21
2018-01-25T00:49:05.822Z,975.18
2018-01-25T00:50:05.787Z,975.15
2018-01-25T00:51:05.816Z,975.18
2018-01-25T00:52:05.428Z,975.15
2018-01-25T00:53:05.854Z,975.18
2018-01-25T00:54:06.255Z,975.15
2018-01-25T00:55:05.452Z,975.18
2018-01-25T00:56:05.788Z,975.12
2018-01-25T00:57:06.082Z,974.95
2018-01-25T00:58:05.906Z,974.94
2018-01-25T00:59:05.763Z,975.21
2018-01-25T01:00:06.631Z,975.32
2018-01-25T01:01:05.464Z,975.18
2018-01-25T01:02:05.850Z,975.16
2018-01-25T01:03:06.178Z,975.01
2018-01-25T01:04:05.416Z,975.01
2018-01-25T01:05:05.806Z,974.99
2018-01-25T01:06:05.469Z,975.13
2018-01-25T01:07:05.879Z,975.24
2018-01-25T01:08:06.280Z,975.16
2018-01-25T01:09:05.498Z,975.19
2018-01-25T01:10:05.844Z,975.10
2018-01-25T01:11:05.827Z,975.19
2018-01-25T01:12:06.246Z,975.27
2018-01-25T01:13:06.148Z,975.16
2018-01-25T01:14:05.426Z,975.10
2018-01-25T01:15:05.835Z,975.16
2018-01-25T01:16:05.799Z,975.16
2018-01-25T01:17:06.225Z,975.27
2018-01-25T01:18:06.369Z,975.33
2018-01-25T01:19:05.442Z,975.27
2018-01-25T01:20:06.181Z,975.40
2018-01-25T01:21:06.229Z,975.35
2018-01-25T01:22:06.286Z,975.40
2018-01-25T01:23:05.839Z,975.30
2018-01-25T01:24:06.233Z,975.35
2018-01-25T01:25:05.820Z,975.40
2018-01-25T01:26:06.520Z,975.40
2018-01-25T01:27:05.878Z,975.49
2018-01-25T01:28:05.450Z,975.43
2018-01-25T01:29:05.858Z,975.43
2018-01-25T01:30:06.318Z,975.46
2018-01-25T01:31:05.889Z,975.33
2018-01-25T01:32:05.424Z,975.46
2018-01-25T01:33:05.926Z,975.49
2018-01-25T01:34:07.203Z,975.43
2018-01-25T01:35:05.865Z,975.54
2018-01-25T01:36:06.238Z,975.46
2018-01-25T01:37:05.547Z,975.60
2018-01-25T01:38:06.228Z,975.66
2018-01-25T01:39:06.397Z,975.66
2018-01-25T01:40:05.486Z,975.69
2018-01-25T01:41:05.696Z,975.69
2018-01-25T01:42:06.516Z,975.80
2018-01-25T01:43:05.880Z,975.60
2018-01-25T01:44:05.901Z,975.74
2018-01-25T01:45:06.247Z,975.72
2018-01-25T01:46:10.683Z,975.72
2018-01-25T01:47:06.224Z,975.63
2018-01-25T01:48:05.536Z,975.63
2018-01-25T01:49:06.237Z,975.69
2018-01-25T01:50:05.570Z,975.66
2018-01-25T01:51:06.219Z,975.77
2018-01-25T01:52:05.921Z,975.71
2018-01-25T01:53:06.573Z,975.77
2018-01-25T01:54:05.918Z,975.66
2018-01-25T01:55:06.270Z,975.77
2018-01-25T01:56:05.800Z,975.66
2018-01-25T01:57:06.244Z,975.77
2018-01-25T01:58:05.905Z,975.91
2018-01-25T01:59:06.305Z,975.80
2018-01-25T02:00:05.877Z,975.66
2018-01-25T02:01:05.855Z,975.77
2018-01-25T02:02:06.814Z,975.66
2018-01-25T02:03:05.938Z,975.66
2018-01-25T02:04:05.544Z,975.74
2018-01-25T02:05:05.970Z,975.69
2018-01-25T02:06:05.480Z,975.63
2018-01-25T02:07:06.273Z,975.57
2018-01-25T02:08:05.489Z,975.74
2018-01-25T02:09:05.881Z,975.69
2018-01-25T02:10:06.335Z,975.72
2018-01-25T02:11:05.589Z,975.66
2018-01-25T02:12:05.841Z,975.72
2018-01-25T02:13:05.942Z,975.58
2018-01-25T02:14:05.576Z,975.66
2018-01-25T02:15:05.516Z,975.58
2018-01-25T02:16:05.641Z,975.64
2018-01-25T02:17:06.492Z,975.64
2018-01-25T02:18:06.209Z,975.52
2018-01-25T02:19:05.545Z,975.52
2018-01-25T02:20:05.621Z,975.55
2018-01-25T02:21:06.612Z,975.58
2018-01-25T02:22:05.846Z,975.55
2018-01-25T02:23:05.580Z,975.58
2018-01-25T02:24:06.327Z,975.61
2018-01-25T02:25:06.253Z,975.61
2018-01-25T02:26:05.629Z,975.72
2018-01-25T02:27:06.328Z,975.50
2018-01-25T02:28:05.882Z,975.41
2018-01-25T02:29:06.338Z,975.50
2018-01-25T02:30:05.511Z,975.55
2018-01-25T02:31:05.573Z,975.50
2018-01-25T02:32:05.915Z,975.38
2018-01-25T02:33:06.114Z,975.38
2018-01-25T02:34:06.327Z,975.53
2018-01-25T02:35:05.656Z,975.44
2018-01-25T02:36:06.521Z,975.47
2018-01-25T02:37:05.519Z,975.28
2018-01-25T02:38:05.597Z,975.28
2018-01-25T02:39:05.929Z,975.39
2018-01-25T02:40:05.522Z,975.42
2018-01-25T02:41:05.874Z,975.47
2018-01-25T02:42:05.961Z,975.33
2018-01-25T02:43:05.526Z,975.42
2018-01-25T02:44:06.314Z,975.36
2018-01-25T02:45:05.715Z,975.36
2018-01-25T02:46:05.462Z,975.31
2018-01-25T02:47:05.613Z,975.47
2018-01-25T02:48:05.966Z,975.36
2018-01-25T02:49:05.559Z,975.50
2018-01-25T02:50:06.296Z,975.50
2018-01-25T02:51:05.889Z,975.45
2018-01-25T02:52:06.315Z,975.45
2018-01-25T02:53:05.664Z,975.39
2018-01-25T02:54:05.577Z,975.36
2018-01-25T02:55:06.037Z,975.48
2018-01-25T02:56:05.573Z,975.45
2018-01-25T02:57:06.355Z,975.51
2018-01-25T02:58:06.542Z,975.34
2018-01-25T02:59:05.989Z,975.29
2018-01-25T03:00:05.642Z,975.37
2018-01-25T03:01:05.976Z,975.29
2018-01-25T03:02:05.595Z,975.29
2018-01-25T03:03:06.042Z,975.37
2018-01-25T03:04:06.330Z,975.29
2018-01-25T03:05:05.933Z,975.40
2018-01-25T03:06:06.384Z,975.37
2018-01-25T03:07:05.938Z,975.42
2018-01-25T03:08:05.943Z,975.45
2018-01-25T03:09:06.426Z,975.32
2018-01-25T03:10:06.055Z,975.40
2018-01-25T03:11:06.509Z,975.40
2018-01-25T03:12:06.381Z,975.34
2018-01-25T03:13:05.696Z,975.40
2018-01-25T03:14:06.356Z,975.45
2018-01-25T03:15:06.377Z,975.42
2018-01-25T03:16:05.591Z,975.37
2018-01-25T03:17:05.998Z,975.30
2018-01-25T03:18:06.404Z,975.30
2018-01-25T03:19:06.094Z,975.43
2018-01-25T03:20:05.607Z,975.32
2018-01-25T03:21:05.692Z,975.51
2018-01-25T03:22:06.351Z,975.57
2018-01-25T03:23:06.361Z,975.37
2018-01-25T03:24:05.573Z,975.34
2018-01-25T03:25:06.431Z,975.46
2018-01-25T03:26:05.970Z,975.32
2018-01-25T03:27:06.016Z,975.24
2018-01-25T03:28:06.348Z,975.51
2018-01-25T03:29:05.956Z,975.40
2018-01-25T03:30:05.964Z,975.30
2018-01-25T03:31:10.124Z,975.46
2018-01-25T03:32:05.608Z,975.30
2018-01-25T03:33:06.373Z,975.40
2018-01-25T03:34:05.676Z,975.37
2018-01-25T03:35:06.444Z,975.33
2018-01-25T03:36:05.978Z,975.33
2018-01-25T03:37:05.334Z,975.54
2018-01-25T03:38:06.383Z,975.40
2018-01-25T03:39:05.658Z,975.51
2018-01-25T03:40:06.340Z,975.63
2018-01-25T03:41:05.695Z,975.60
2018-01-25T03:42:06.630Z,975.49
2018-01-25T03:43:06.019Z,975.52
2018-01-25T03:44:06.021Z,975.63
2018-01-25T03:45:06.344Z,975.49
2018-01-25T03:46:06.391Z,975.71
2018-01-25T03:47:06.267Z,975.63
2018-01-25T03:48:05.660Z,975.60
2018-01-25T03:49:05.310Z,975.60
2018-01-25T03:50:06.026Z,975.72
2018-01-25T03:51:06.380Z,975.72
2018-01-25T03:52:05.597Z,975.60
2018-01-25T03:53:06.044Z,975.77
2018-01-25T03:54:06.065Z,975.60
2018-01-25T03:55:06.397Z,975.69
2018-01-25T03:56:06.033Z,975.72
2018-01-25T03:57:06.007Z,975.72
2018-01-25T03:58:06.325Z,975.69
2018-01-25T03:59:06.367Z,975.63
2018-01-25T04:00:05.616Z,975.72
2018-01-25T04:01:05.717Z,975.63
2018-01-25T04:02:05.713Z,975.60
2018-01-25T04:03:05.723Z,975.66
2018-01-25T04:04:06.009Z,975.63
2018-01-25T04:05:06.420Z,975.63
2018-01-25T04:06:05.610Z,975.48
2018-01-25T04:07:05.630Z,975.57
2018-01-25T04:08:06.138Z,975.62
2018-01-25T04:09:06.538Z,975.65
2018-01-25T04:10:05.721Z,975.59
2018-01-25T04:11:06.048Z,975.68
2018-01-25T04:12:05.659Z,975.59
2018-01-25T04:13:06.734Z,975.71
2018-01-25T04:14:06.097Z,975.68
2018-01-25T04:15:05.552Z,975.73
2018-01-25T04:16:11.007Z,975.68
2018-01-25T04:17:06.327Z,975.65
2018-01-25T04:18:05.671Z,975.70
2018-01-25T04:19:06.009Z,975.53
2018-01-25T04:20:06.025Z,975.62
2018-01-25T04:21:06.180Z,975.62
2018-01-25T04:22:06.532Z,975.65
2018-01-25T04:23:06.422Z,975.70
2018-01-25T04:24:06.418Z,975.62
2018-01-25T04:25:06.066Z,975.73
2018-01-25T04:26:06.376Z,975.62
2018-01-25T04:27:06.107Z,975.70
2018-01-25T04:28:05.701Z,975.59
2018-01-25T04:29:06.047Z,975.59
2018-01-25T04:30:05.954Z,975.56
2018-01-25T04:31:06.037Z,975.73
2018-01-25T04:32:06.356Z,975.64
2018-01-25T04:33:06.292Z,975.67
2018-01-25T04:34:05.296Z,975.59
2018-01-25T04:35:05.629Z,975.70
2018-01-25T04:36:06.141Z,975.67
2018-01-25T04:37:05.724Z,975.59
2018-01-25T04:38:06.014Z,975.61
2018-01-25T04:39:06.548Z,975.53
2018-01-25T04:40:06.117Z,975.70
2018-01-25T04:41:06.061Z,975.59
2018-01-25T04:42:06.422Z,975.75
2018-01-25T04:43:06.106Z,975.75
2018-01-25T04:44:05.715Z,975.70
2018-01-25T04:45:06.475Z,975.75
2018-01-25T04:46:05.747Z,975.72
2018-01-25T04:47:05.650Z,975.70
2018-01-25T04:48:05.756Z,975.64
2018-01-25T04:49:06.052Z,975.72
2018-01-25T04:50:05.618Z,975.64
2018-01-25T04:51:05.985Z,975.67
2018-01-25T04:52:05.665Z,975.95
2018-01-25T04:53:06.413Z,975.75
2018-01-25T04:54:06.141Z,975.61
2018-01-25T04:55:06.161Z,975.70
2018-01-25T04:56:06.080Z,975.72
2018-01-25T04:57:05.686Z,975.69
2018-01-25T04:58:06.117Z,975.64
2018-01-25T04:59:05.737Z,975.61
2018-01-25T05:00:06.026Z,975.61
2018-01-25T05:01:05.952Z,975.75
2018-01-25T05:02:05.636Z,975.64
2018-01-25T05:03:05.742Z,975.52
2018-01-25T05:04:06.104Z,975.55
2018-01-25T05:05:05.666Z,975.72
2018-01-25T05:06:06.117Z,975.60
2018-01-25T05:07:06.016Z,975.46
2018-01-25T05:08:05.376Z,975.63
2018-01-25T05:09:05.973Z,975.46
2018-01-25T05:10:05.783Z,975.51
2018-01-25T05:11:06.112Z,975.69
2018-01-25T05:12:06.473Z,975.63
2018-01-25T05:13:05.678Z,975.60
2018-01-25T05:14:06.217Z,975.60
2018-01-25T05:15:05.701Z,975.68
2018-01-25T05:16:06.041Z,975.57
2018-01-25T05:17:06.743Z,975.54
2018-01-25T05:18:06.130Z,975.62
2018-01-25T05:19:05.747Z,975.62
2018-01-25T05:20:06.497Z,975.62
2018-01-25T05:21:06.068Z,975.54
2018-01-25T05:22:05.314Z,975.57
2018-01-25T05:23:05.704Z,975.59
2018-01-25T05:24:06.075Z,975.59
2018-01-25T05:25:06.498Z,975.76
2018-01-25T05:26:06.124Z,975.76
2018-01-25T05:27:05.740Z,975.71
2018-01-25T05:28:06.082Z,975.71
2018-01-25T05:29:05.373Z,975.88
2018-01-25T05:30:05.760Z,975.68
2018-01-25T05:31:06.337Z,975.71
2018-01-25T05:32:05.693Z,975.62
2018-01-25T05:33:06.079Z,975.74
2018-01-25T05:34:06.076Z,975.57
2018-01-25T05:35:06.560Z,975.65
2018-01-25T05:36:05.720Z,975.74
2018-01-25T05:37:05.814Z,975.74
2018-01-25T05:38:06.189Z,975.82
2018-01-25T05:39:05.760Z,975.82
2018-01-25T05:40:06.146Z,975.60
2018-01-25T05:41:06.169Z,975.74
2018-01-25T05:42:06.109Z,975.82
2018-01-25T05:43:06.495Z,975.60
2018-01-25T05:44:06.064Z,975.68
2018-01-25T05:45:06.124Z,975.80
2018-01-25T05:46:06.084Z,975.68
2018-01-25T05:47:06.011Z,975.77
2018-01-25T05:48:05.734Z,975.80
2018-01-25T05:49:05.637Z,975.97
2018-01-25T05:50:06.454Z,975.80
2018-01-25T05:51:05.991Z,975.83
2018-01-25T05:52:05.753Z,975.77
2018-01-25T05:53:06.176Z,975.71
2018-01-25T05:54:06.106Z,975.85
2018-01-25T05:55:05.364Z,975.97
2018-01-25T05:56:05.331Z,976.02
2018-01-25T05:57:05.360Z,975.91
2018-01-25T05:58:05.694Z,975.88
2018-01-25T05:59:06.432Z,975.80
2018-01-25T06:00:05.719Z,975.88
2018-01-25T06:01:05.732Z,975.80
2018-01-25T06:02:06.063Z,975.97
2018-01-25T06:03:06.620Z,975.88
2018-01-25T06:04:15.756Z,975.99
2018-01-25T06:05:06.134Z,975.88
2018-01-25T06:06:05.826Z,975.97
2018-01-25T06:07:06.140Z,975.80
2018-01-25T06:08:05.742Z,975.97
2018-01-25T06:09:05.746Z,975.88
2018-01-25T06:10:05.832Z,975.85
2018-01-25T06:11:05.754Z,975.85
2018-01-25T06:12:06.124Z,975.82
2018-01-25T06:13:06.378Z,975.74
2018-01-25T06:14:06.044Z,975.82
2018-01-25T06:15:05.355Z,976.02
2018-01-25T06:16:05.457Z,976.00
2018-01-25T06:17:05.429Z,975.83
2018-01-25T06:18:05.747Z,975.91
2018-01-25T06:19:06.548Z,975.85
2018-01-25T06:20:06.176Z,975.88
2018-01-25T06:21:06.152Z,975.85
2018-01-25T06:22:05.916Z,975.77
2018-01-25T06:23:06.525Z,975.74
2018-01-25T06:24:06.209Z,976.00
2018-01-25T06:25:06.814Z,975.85
2018-01-25T06:26:06.301Z,975.86
2018-01-25T06:27:05.781Z,976.00
2018-01-25T06:28:11.394Z,975.80
2018-01-25T06:29:06.228Z,975.97
2018-01-25T06:30:06.182Z,975.80
2018-01-25T06:31:06.162Z,975.80
2018-01-25T06:32:05.763Z,975.89
2018-01-25T06:33:06.244Z,975.91
2018-01-25T06:34:05.744Z,975.89
2018-01-25T06:35:06.238Z,975.89
2018-01-25T06:36:05.756Z,975.69
2018-01-25T06:37:06.723Z,975.86
2018-01-25T06:38:06.179Z,975.91
2018-01-25T06:39:06.030Z,975.72
2018-01-25T06:40:05.861Z,975.86
2018-01-25T06:41:06.175Z,975.86
2018-01-25T06:42:05.391Z,975.80
2018-01-25T06:43:06.232Z,975.91
2018-01-25T06:44:05.405Z,975.91
2018-01-25T06:45:06.182Z,975.86
2018-01-25T06:46:06.177Z,975.94
2018-01-25T06:47:05.425Z,975.83
2018-01-25T06:48:05.778Z,975.86
2018-01-25T06:49:06.168Z,975.92
2018-01-25T06:50:05.803Z,975.86
2018-01-25T06:51:06.078Z,975.89
2018-01-25T06:52:05.485Z,975.92
2018-01-25T06:53:05.793Z,975.86
2018-01-25T06:54:05.421Z,975.94
2018-01-25T06:55:06.456Z,975.92
2018-01-25T06:56:05.384Z,975.89
2018-01-25T06:57:06.238Z,975.83
2018-01-25T06:58:05.700Z,975.89
2018-01-25T06:59:06.174Z,975.69
2018-01-25T07:00:05.395Z,975.75
2018-01-25T07:01:06.520Z,975.83
2018-01-25T07:02:06.120Z,975.80
2018-01-25T07:03:05.763Z,975.75
2018-01-25T07:04:10.320Z,975.83
2018-01-25T07:05:06.251Z,975.80
2018-01-25T07:06:05.871Z,976.12
2018-01-25T07:07:06.230Z,976.03
2018-01-25T07:08:05.795Z,976.06
2018-01-25T07:09:06.188Z,976.00
2018-01-25T07:10:06.101Z,976.06
2018-01-25T07:11:06.294Z,976.06
2018-01-25T07:12:06.536Z,976.09
2018-01-25T07:13:05.842Z,976.12
2018-01-25T07:14:06.278Z,975.95
2018-01-25T07:15:05.461Z,976.00
2018-01-25T07:16:06.171Z,975.92
2018-01-25T07:17:05.401Z,976.00
2018-01-25T07:18:05.811Z,976.09
2018-01-25T07:19:06.197Z,976.06
2018-01-25T07:20:05.464Z,975.89
2018-01-25T07:21:06.501Z,976.03
2018-01-25T07:22:06.437Z,976.00
2018-01-25T07:23:05.876Z,976.12
2018-01-25T07:24:06.215Z,976.23
2018-01-25T07:25:05.847Z,976.12
2018-01-25T07:26:06.206Z,976.14
2018-01-25T07:27:05.779Z,976.06
2018-01-25T07:28:05.456Z,976.17
2018-01-25T07:29:05.917Z,976.09
2018-01-25T07:30:05.804Z,976.00
2018-01-25T07:31:06.233Z,976.03
2018-01-25T07:32:06.302Z,976.11
2018-01-25T07:33:06.302Z,975.86
2018-01-25T07:34:06.125Z,976.03
2018-01-25T07:35:05.815Z,976.09
2018-01-25T07:36:06.230Z,976.09
2018-01-25T07:37:06.105Z,976.06
2018-01-25T07:38:05.482Z,976.00
2018-01-25T07:39:05.436Z,976.11
2018-01-25T07:40:05.823Z,976.00
2018-01-25T07:41:05.525Z,975.94
2018-01-25T07:42:06.331Z,976.14
2018-01-25T07:43:05.826Z,976.08
2018-01-25T07:44:06.292Z,975.97
2018-01-25T07:45:05.825Z,975.97
2018-01-25T07:46:05.954Z,976.05
2018-01-25T07:47:06.185Z,975.97
2018-01-25T07:48:06.141Z,975.94
2018-01-25T07:49:06.526Z,975.88
2018-01-25T07:50:05.846Z,976.05
2018-01-25T07:51:06.307Z,975.91
2018-01-25T07:52:05.818Z,976.05
2018-01-25T07:53:06.230Z,975.96
2018-01-25T07:54:05.577Z,975.82
2018-01-25T07:55:06.260Z,975.88
2018-01-25T07:56:05.480Z,975.90
2018-01-25T07:57:05.802Z,975.88
2018-01-25T07:58:05.455Z,975.93
2018-01-25T07:59:05.915Z,975.73
2018-01-25T08:00:06.283Z,975.76
2018-01-25T08:01:06.899Z,975.82
2018-01-25T08:02:06.282Z,975.82
2018-01-25T08:03:06.143Z,975.93
2018-01-25T08:04:05.867Z,975.87
2018-01-25T08:05:05.990Z,975.81
2018-01-25T08:06:06.274Z,975.81
2018-01-25T08:07:05.807Z,975.79
2018-01-25T08:08:05.832Z,975.96
2018-01-25T08:09:06.549Z,975.84
2018-01-25T08:10:05.472Z,975.79
2018-01-25T08:11:05.762Z,975.79
2018-01-25T08:12:06.287Z,975.76
2018-01-25T08:13:05.902Z,975.92
2018-01-25T08:14:05.502Z,975.84
2018-01-25T08:15:11.043Z,975.75
2018-01-25T08:16:05.783Z,975.78
2018-01-25T08:17:06.272Z,975.75
2018-01-25T08:18:06.218Z,975.78
2018-01-25T08:19:06.332Z,975.72
2018-01-25T08:20:06.276Z,975.84
2018-01-25T08:21:05.874Z,975.81
2018-01-25T08:22:06.163Z,975.86
2018-01-25T08:23:05.224Z,975.78
2018-01-25T08:24:06.322Z,975.89
2018-01-25T08:25:06.578Z,975.83
2018-01-25T08:26:05.874Z,975.72
2018-01-25T08:27:06.185Z,975.78
2018-01-25T08:28:05.468Z,975.83
2018-01-25T08:29:05.878Z,975.75
2018-01-25T08:30:05.576Z,975.95
2018-01-25T08:31:05.882Z,975.83
2018-01-25T08:32:05.498Z,976.00
2018-01-25T08:33:05.535Z,975.92
2018-01-25T08:34:06.319Z,975.75
2018-01-25T08:35:05.780Z,976.00
2018-01-25T08:36:06.292Z,975.94
2018-01-25T08:37:05.783Z,975.97
2018-01-25T08:38:06.198Z,975.83
2018-01-25T08:39:05.952Z,976.11
2018-01-25T08:40:05.874Z,976.05
2018-01-25T08:41:05.497Z,976.11
2018-01-25T08:42:06.177Z,975.97
2018-01-25T08:43:05.541Z,975.91
2018-01-25T08:44:05.875Z,976.02
2018-01-25T08:45:06.308Z,976.05
2018-01-25T08:46:05.958Z,975.97
2018-01-25T08:47:05.527Z,976.05
2018-01-25T08:48:05.923Z,975.96
2018-01-25T08:49:06.299Z,975.96
2018-01-25T08:50:05.911Z,975.96
2018-01-25T08:51:05.934Z,975.99
2018-01-25T08:52:06.176Z,975.88
2018-01-25T08:53:06.217Z,976.05
2018-01-25T08:54:05.507Z,976.05
2018-01-25T08:55:05.972Z,976.08
2018-01-25T08:56:06.309Z,976.05
2018-01-25T08:57:05.581Z,975.96
2018-01-25T08:58:05.486Z,976.10
2018-01-25T08:59:05.616Z,976.10
2018-01-25T09:00:05.545Z,975.90
2018-01-25T09:01:05.527Z,975.90
2018-01-25T09:02:05.984Z,976.05
2018-01-25T09:03:06.666Z,975.93
2018-01-25T09:04:05.909Z,975.96
2018-01-25T09:05:06.278Z,975.96
2018-01-25T09:06:05.621Z,976.02
2018-01-25T09:07:06.306Z,976.10
2018-01-25T09:08:06.274Z,976.04
2018-01-25T09:09:05.567Z,976.07
2018-01-25T09:10:05.898Z,976.16
2018-01-25T09:11:06.334Z,976.07
2018-01-25T09:12:05.274Z,976.04
2018-01-25T09:13:05.914Z,976.10
2018-01-25T09:14:06.358Z,976.24
2018-01-25T09:15:05.972Z,976.07
2018-01-25T09:16:06.410Z,976.21
2018-01-25T09:17:05.962Z,976.09
2018-01-25T09:18:05.533Z,976.26
2018-01-25T09:19:05.911Z,976.26
2018-01-25T09:20:06.305Z,976.26
2018-01-25T09:21:06.311Z,976.32
2018-01-25T09:22:05.967Z,976.21
2018-01-25T09:23:06.017Z,976.26
2018-01-25T09:24:05.622Z,976.12
2018-01-25T09:25:05.972Z,976.20
2018-01-25T09:26:06.320Z,976.23
2018-01-25T09:27:05.878Z,976.15
2018-01-25T09:28:06.016Z,976.20
2018-01-25T09:29:06.391Z,976.23
2018-01-25T09:30:05.979Z,976.18
2018-01-25T09:31:05.604Z,976.26
2018-01-25T09:32:06.194Z,976.26
2018-01-25T09:33:05.566Z,976.20
2018-01-25T09:34:06.023Z,976.26
2018-01-25T09:35:06.398Z,976.34
2018-01-25T09:36:05.594Z,976.32
2018-01-25T09:37:06.008Z,976.26
2018-01-25T09:38:06.399Z,976.46
2018-01-25T09:39:05.685Z,976.26
2018-01-25T09:40:05.611Z,976.17
2018-01-25T09:41:05.586Z,976.48
2018-01-25T09:42:05.972Z,976.26
2018-01-25T09:43:06.379Z,976.31
2018-01-25T09:44:06.063Z,976.28
2018-01-25T09:45:05.670Z,976.25
2018-01-25T09:46:06.052Z,976.34
2018-01-25T09:47:05.603Z,976.20
2018-01-25T09:48:06.394Z,976.37
2018-01-25T09:49:05.865Z,976.39
2018-01-25T09:50:06.100Z,976.39
2018-01-25T09:51:06.339Z,976.25
2018-01-25T09:52:05.947Z,976.36
2018-01-25T09:53:05.592Z,976.39
2018-01-25T09:54:05.985Z,976.28
2018-01-25T09:55:05.605Z,976.25
2018-01-25T09:56:05.650Z,976.28
2018-01-25T09:57:06.408Z,976.22
2018-01-25T09:58:05.948Z,976.27
2018-01-25T09:59:06.293Z,976.13
2018-01-25T10:00:05.624Z,976.19
2018-01-25T10:01:05.252Z,976.10
2018-01-25T10:02:05.672Z,976.30
2018-01-25T10:03:06.371Z,976.07
2018-01-25T10:04:05.613Z,976.07
2018-01-25T10:05:06.053Z,976.10
2018-01-25T10:06:06.354Z,976.07
2018-01-25T10:07:05.668Z,976.07
2018-01-25T10:08:06.396Z,975.90
2018-01-25T10:09:05.982Z,975.96
2018-01-25T10:10:06.386Z,976.04
2018-01-25T10:11:05.228Z,975.93
2018-01-25T10:12:05.587Z,975.98
2018-01-25T10:13:06.055Z,975.93
2018-01-25T10:14:05.636Z,976.01
2018-01-25T10:15:06.381Z,975.81
2018-01-25T10:16:05.856Z,975.89
2018-01-25T10:17:05.599Z,975.72
2018-01-25T10:18:06.336Z,975.81
2018-01-25T10:19:05.695Z,975.86
2018-01-25T10:20:06.396Z,975.95
2018-01-25T10:21:06.393Z,975.83
2018-01-25T10:22:05.643Z,975.86
2018-01-25T10:23:05.990Z,975.83
2018-01-25T10:24:06.420Z,975.80
2018-01-25T10:25:05.755Z,975.80
2018-01-25T10:26:06.030Z,975.63
2018-01-25T10:27:05.688Z,975.71
2018-01-25T10:28:06.071Z,975.74
2018-01-25T10:29:06.388Z,975.68
2018-01-25T10:30:05.669Z,975.68
2018-01-25T10:31:05.596Z,975.74
2018-01-25T10:32:05.996Z,975.71
2018-01-25T10:33:06.412Z,975.82
2018-01-25T10:34:05.721Z,975.70
2018-01-25T10:35:06.461Z,975.67
2018-01-25T10:36:06.149Z,975.76
2018-01-25T10:37:05.616Z,975.73
2018-01-25T10:38:06.316Z,975.64
2018-01-25T10:39:05.248Z,975.69
2018-01-25T10:40:05.708Z,975.67
2018-01-25T10:41:06.002Z,975.72
2018-01-25T10:42:05.622Z,975.72
2018-01-25T10:43:05.978Z,975.60
2018-01-25T10:44:06.483Z,975.69
2018-01-25T10:45:05.736Z,975.66
2018-01-25T10:46:05.700Z,975.66
2018-01-25T10:47:06.082Z,975.80
2018-01-25T10:48:05.690Z,975.71
2018-01-25T10:49:06.413Z,975.74
2018-01-25T10:50:06.035Z,975.68
2018-01-25T10:51:06.079Z,975.76
2018-01-25T10:52:05.654Z,975.68
2018-01-25T10:53:05.914Z,975.65
2018-01-25T10:54:06.458Z,975.62
2018-01-25T10:55:05.950Z,975.90
2018-01-25T10:56:06.114Z,975.76
2018-01-25T10:57:05.716Z,975.67
2018-01-25T10:58:06.074Z,975.56
2018-01-25T10:59:06.446Z,975.67
2018-01-25T11:00:05.682Z,975.56
2018-01-25T11:01:05.374Z,975.61
2018-01-25T11:02:06.013Z,975.61
2018-01-25T11:03:06.098Z,975.61
2018-01-25T11:04:06.396Z,975.58
2018-01-25T11:05:10.148Z,975.64
2018-01-25T11:06:05.672Z,975.64
2018-01-25T11:07:06.468Z,975.67
2018-01-25T11:08:05.727Z,975.64
2018-01-25T11:09:06.150Z,975.69
2018-01-25T11:10:05.688Z,975.52
2018-01-25T11:11:06.316Z,975.52
2018-01-25T11:12:06.144Z,975.46
2018-01-25T11:13:05.336Z,975.46
2018-01-25T11:14:05.935Z,975.52
2018-01-25T11:15:05.364Z,975.49
2018-01-25T11:16:06.113Z,975.55
2018-01-25T11:17:06.067Z,975.52
2018-01-25T11:18:06.045Z,975.46
2018-01-25T11:19:06.457Z,975.35
2018-01-25T11:20:06.475Z,975.52
2018-01-25T11:21:05.665Z,975.49
2018-01-25T11:22:06.154Z,975.40
2018-01-25T11:23:05.385Z,975.40
2018-01-25T11:24:06.105Z,975.43
2018-01-25T11:25:05.766Z,975.41
2018-01-25T11:26:05.596Z,975.43
2018-01-25T11:27:05.361Z,975.33
2018-01-25T11:28:06.043Z,975.38
2018-01-25T11:29:06.391Z,975.40
2018-01-25T11:30:06.107Z,975.38
2018-01-25T11:31:06.045Z,975.52
2018-01-25T11:32:06.403Z,975.37
2018-01-25T11:33:05.588Z,975.37
2018-01-25T11:34:05.780Z,975.46
2018-01-25T11:35:06.420Z,975.49
2018-01-25T11:36:06.075Z,975.49
2018-01-25T11:37:05.746Z,975.40
2018-01-25T11:38:05.712Z,975.49
2018-01-25T11:39:06.520Z,975.43
2018-01-25T11:40:05.753Z,975.34
2018-01-25T11:41:06.070Z,975.34
2018-01-25T11:42:06.086Z,975.43
2018-01-25T11:43:05.344Z,975.27
2018-01-25T11:44:06.538Z,975.54
2018-01-25T11:45:06.433Z,975.34
2018-01-25T11:46:05.655Z,975.37
2018-01-25T11:47:06.077Z,975.46
2018-01-25T11:48:05.696Z,975.34
2018-01-25T11:49:06.074Z,975.40
2018-01-25T11:50:06.128Z,975.49
2018-01-25T11:51:05.719Z,975.37
2018-01-25T11:52:06.058Z,975.43
2018-01-25T11:53:06.053Z,975.46
2018-01-25T11:54:06.407Z,975.30
2018-01-25T11:55:05.722Z,975.43
2018-01-25T11:56:06.102Z,975.27
2018-01-25T11:57:06.059Z,975.30
2018-01-25T11:58:06.076Z,975.37
2018-01-25T11:59:05.337Z,975.43
2018-01-25T12:00:06.137Z,975.27
2018-01-25T12:01:05.374Z,975.49
2018-01-25T12:02:05.793Z,975.43
2018-01-25T12:03:06.134Z,975.55
2018-01-25T12:04:05.756Z,975.43
2018-01-25T12:05:05.716Z,975.49
2018-01-25T12:06:05.714Z,975.40
2018-01-25T12:07:06.791Z,975.60
2018-01-25T12:08:06.087Z,975.46
2018-01-25T12:09:06.604Z,975.38
2018-01-25T12:10:06.114Z,975.43
2018-01-25T12:11:06.507Z,975.52
2018-01-25T12:12:05.775Z,975.35
2018-01-25T12:13:06.066Z,975.49
2018-01-25T12:14:06.497Z,975.38
2018-01-25T12:15:06.083Z,975.41
2018-01-25T12:16:06.229Z,975.28
2018-01-25T12:17:05.795Z,975.35
2018-01-25T12:18:06.416Z,975.33
2018-01-25T12:19:05.840Z,975.31
2018-01-25T12:20:05.331Z,975.31
2018-01-25T12:21:06.477Z,975.31
2018-01-25T12:22:06.015Z,975.36
2018-01-25T12:23:05.663Z,975.36
2018-01-25T12:24:06.585Z,975.28
2018-01-25T12:25:05.721Z,975.39
2018-01-25T12:26:06.518Z,975.28
2018-01-25T12:27:05.348Z,975.33
2018-01-25T12:28:05.766Z,975.26